createdAt,value
2023-03-22T00:00:37.262Z,100.00
2023-03-22T00:03:10.304Z,100.00
2023-03-22T00:05:41.760Z,100.00
2023-03-22T00:08:13.673Z,100.00
2023-03-22T00:10:47.755Z,100.00
2023-03-22T00:13:19.145Z,100.00
2023-03-22T00:15:50.651Z,100.00
2023-03-22T00:18:21.936Z,100.00
2023-03-22T00:20:55.277Z,100.00
2023-03-22T00:23:28.276Z,100.00
2023-03-22T00:25:59.821Z,100.00
2023-03-22T00:28:31.285Z,100.00
2023-03-22T00:31:04.810Z,100.00
2023-03-22T00:33:37.117Z,100.00
2023-03-22T00:36:11.602Z,100.00
2023-03-22T00:38:44.230Z,100.00
2023-03-22T00:41:17.787Z,100.00
2023-03-22T00:43:50.711Z,100.00
2023-03-22T00:46:22.445Z,100.00
2023-03-22T00:48:54.072Z,100.00
2023-03-22T00:51:25.397Z,100.00
2023-03-22T00:53:56.781Z,100.00
2023-03-22T00:56:28.781Z,100.00
2023-03-22T00:59:00.293Z,100.00
2023-03-22T01:01:32.043Z,100.00
2023-03-22T01:04:05.051Z,100.00
2023-03-22T01:06:36.356Z,100.00
2023-03-22T01:09:07.634Z,100.00
2023-03-22T01:11:38.958Z,100.00
2023-03-22T01:14:10.434Z,100.00
2023-03-22T01:16:41.854Z,100.00
2023-03-22T01:19:13.360Z,100.00
2023-03-22T01:21:44.643Z,100.00
2023-03-22T01:24:16.682Z,100.00
2023-03-22T01:26:48.450Z,100.00
2023-03-22T01:29:20.416Z,100.00
2023-03-22T01:31:52.770Z,100.00
2023-03-22T01:34:24.264Z,100.00
2023-03-22T01:36:55.826Z,100.00
2023-03-22T01:39:27.487Z,100.00
2023-03-22T01:41:59.122Z,100.00
2023-03-22T01:44:31.455Z,100.00
2023-03-22T01:47:02.920Z,100.00
2023-03-22T01:49:35.664Z,100.00
2023-03-22T01:52:14.142Z,100.00
2023-03-22T01:54:50.442Z,100.00
2023-03-22T01:57:22.179Z,100.00
2023-03-22T01:59:53.534Z,100.00
2023-03-22T02:02:25.400Z,100.00
2023-03-22T02:04:57.969Z,100.00
2023-03-22T02:07:31.690Z,100.00
2023-03-22T02:10:03.594Z,100.00
2023-03-22T02:13:15.352Z,100.00
2023-03-22T02:16:00.861Z,100.00
2023-03-22T02:18:57.049Z,100.00
2023-03-22T02:22:06.512Z,100.00
2023-03-22T02:24:58.591Z,100.00
2023-03-22T02:27:46.916Z,100.00
2023-03-22T02:30:53.194Z,100.00
2023-03-22T02:33:49.262Z,100.00
2023-03-22T02:36:48.385Z,100.00
2023-03-22T02:39:30.810Z,100.00
2023-03-22T02:42:23.863Z,100.00
2023-03-22T02:45:22.013Z,100.00
2023-03-22T02:48:07.216Z,100.00
2023-03-22T02:50:48.995Z,100.00
2023-03-22T02:53:45.275Z,100.00
2023-03-22T02:56:25.733Z,100.00
2023-03-22T02:59:04.267Z,100.00
2023-03-22T03:01:40.864Z,100.00
2023-03-22T03:04:26.761Z,100.00
2023-03-22T03:07:05.671Z,100.00
2023-03-22T03:09:40.408Z,100.00
2023-03-22T03:12:18.990Z,100.00
2023-03-22T03:14:50.649Z,100.00
2023-03-22T03:17:28.202Z,100.00
2023-03-22T03:20:32.092Z,100.00
2023-03-22T03:23:24.468Z,100.00
2023-03-22T03:26:13.540Z,100.00
2023-03-22T03:29:09.782Z,100.00
2023-03-22T03:31:56.118Z,100.00
2023-03-22T03:34:39.768Z,100.00
2023-03-22T03:37:19.032Z,100.00
2023-03-22T03:39:56.022Z,100.00
2023-03-22T03:42:29.813Z,100.00
2023-03-22T03:45:01.820Z,100.00
2023-03-22T03:47:34.646Z,100.00
2023-03-22T03:50:07.547Z,100.00
2023-03-22T03:52:38.912Z,100.00
2023-03-22T03:55:10.535Z,100.00
2023-03-22T03:57:41.900Z,100.00
2023-03-22T04:00:17.182Z,100.00
2023-03-22T04:02:48.483Z,100.00
2023-03-22T04:05:19.818Z,100.00
2023-03-22T04:07:51.159Z,100.00
2023-03-22T04:10:22.559Z,100.00
2023-03-22T04:12:53.867Z,100.00
2023-03-22T04:15:25.185Z,100.00
2023-03-22T04:17:56.703Z,100.00
2023-03-22T04:20:29.750Z,100.00
2023-03-22T04:23:01.114Z,100.00
2023-03-22T04:25:33.854Z,100.00
2023-03-22T04:28:05.531Z,100.00
2023-03-22T04:30:37.110Z,100.00
2023-03-22T04:33:08.667Z,100.00
2023-03-22T04:35:39.939Z,100.00
2023-03-22T04:38:11.995Z,100.00
2023-03-22T04:40:46.591Z,100.00
2023-03-22T04:43:19.140Z,100.00
2023-03-22T04:45:50.617Z,100.00
2023-03-22T04:48:23.662Z,100.00
2023-03-22T04:50:55.466Z,100.00
2023-03-22T04:53:27.553Z,100.00
2023-03-22T04:55:59.381Z,100.00
2023-03-22T04:58:30.891Z,100.00
2023-03-22T05:01:03.376Z,100.00
2023-03-22T05:03:36.600Z,100.00
2023-03-22T05:06:09.113Z,100.00
2023-03-22T05:08:40.554Z,100.00
2023-03-22T05:11:14.833Z,100.00
2023-03-22T05:13:46.204Z,100.00
2023-03-22T05:16:17.625Z,100.00
2023-03-22T05:18:49.856Z,100.00
2023-03-22T05:21:28.356Z,100.00
2023-03-22T05:23:59.702Z,100.00
2023-03-22T05:26:31.005Z,100.00
2023-03-22T05:29:02.321Z,100.00
2023-03-22T05:31:34.515Z,100.00
2023-03-22T05:34:05.877Z,100.00
2023-03-22T05:36:37.283Z,100.00
2023-03-22T05:39:09.166Z,100.00
2023-03-22T05:41:40.589Z,100.00
2023-03-22T05:44:11.949Z,100.00
2023-03-22T05:46:43.358Z,100.00
2023-03-22T05:49:14.703Z,100.00
2023-03-22T05:51:47.020Z,100.00
2023-03-22T05:54:18.488Z,100.00
2023-03-22T05:56:49.784Z,100.00
2023-03-22T05:59:21.499Z,100.00
2023-03-22T06:01:52.850Z,100.00
2023-03-22T06:04:24.160Z,100.00
2023-03-22T06:06:55.518Z,100.00
2023-03-22T06:09:26.990Z,100.00
2023-03-22T06:11:58.781Z,100.00
2023-03-22T06:14:30.350Z,100.00
2023-03-22T06:17:01.982Z,100.00
2023-03-22T06:19:33.332Z,100.00
2023-03-22T06:22:04.651Z,100.00
2023-03-22T06:24:36.400Z,100.00
2023-03-22T06:27:09.129Z,100.00
2023-03-22T06:29:40.467Z,100.00
2023-03-22T06:32:11.868Z,100.00
2023-03-22T06:34:43.945Z,100.00
2023-03-22T06:37:16.306Z,100.00
2023-03-22T06:39:47.798Z,100.00
2023-03-22T06:42:19.179Z,100.00
2023-03-22T06:44:50.488Z,100.00
2023-03-22T06:47:21.778Z,100.00
2023-03-22T06:49:53.467Z,100.00
2023-03-22T06:52:24.832Z,100.00
2023-03-22T06:54:56.883Z,100.00
2023-03-22T06:57:28.346Z,100.00
2023-03-22T07:00:00.007Z,100.00
2023-03-22T07:02:31.388Z,99.94
2023-03-22T07:05:02.740Z,100.00
2023-03-22T07:07:34.035Z,100.00
2023-03-22T07:10:07.828Z,99.87
2023-03-22T07:12:39.196Z,99.70
2023-03-22T07:15:11.018Z,99.54
2023-03-22T07:17:42.282Z,99.37
2023-03-22T07:20:13.665Z,99.40
2023-03-22T07:22:45.869Z,99.16
2023-03-22T07:25:17.351Z,98.99
2023-03-22T07:27:48.677Z,98.99
2023-03-22T07:30:20.059Z,98.74
2023-03-22T07:32:51.460Z,98.67
2023-03-22T07:35:24.558Z,98.62
2023-03-22T07:37:58.473Z,98.18
2023-03-22T07:40:30.432Z,98.31
2023-03-22T07:43:01.709Z,98.22
2023-03-22T07:45:33.105Z,97.86
2023-03-22T07:48:04.593Z,97.65
2023-03-22T07:50:35.990Z,97.55
2023-03-22T07:53:07.343Z,97.08
2023-03-22T07:55:39.881Z,97.13
2023-03-22T07:58:11.241Z,97.00
2023-03-22T08:00:42.555Z,96.84
2023-03-22T08:03:13.916Z,96.98
2023-03-22T08:05:45.564Z,96.99
2023-03-22T08:08:17.268Z,96.78
2023-03-22T08:10:50.253Z,96.52
2023-03-22T08:13:21.621Z,96.26
2023-03-22T08:15:53.011Z,96.05
2023-03-22T08:18:24.651Z,95.65
2023-03-22T08:20:58.129Z,95.55
2023-03-22T08:23:40.961Z,95.73
2023-03-22T08:26:15.956Z,95.54
2023-03-22T08:28:47.275Z,95.24
2023-03-22T08:31:20.053Z,94.91
2023-03-22T08:33:51.961Z,95.22
2023-03-22T08:36:23.705Z,94.80
2023-03-22T08:38:55.094Z,94.48
2023-03-22T08:41:26.404Z,94.33
2023-03-22T08:43:58.124Z,94.23
2023-03-22T08:46:29.535Z,93.98
2023-03-22T08:49:02.292Z,94.22
2023-03-22T08:51:33.647Z,94.18
2023-03-22T08:54:05.285Z,94.24
2023-03-22T08:56:38.048Z,93.91
2023-03-22T08:59:09.772Z,93.49
2023-03-22T09:01:41.296Z,93.68
2023-03-22T09:04:12.773Z,93.46
2023-03-22T09:06:45.390Z,93.40
2023-03-22T09:09:16.718Z,92.88
2023-03-22T09:11:47.999Z,92.58
2023-03-22T09:14:19.314Z,92.64
2023-03-22T09:16:51.666Z,92.61
2023-03-22T09:19:23.048Z,91.97
2023-03-22T09:21:54.459Z,91.91
2023-03-22T09:24:25.754Z,91.16
2023-03-22T09:26:58.528Z,90.72
2023-03-22T09:29:29.840Z,90.75
2023-03-22T09:32:01.273Z,90.43
2023-03-22T09:34:32.681Z,90.01
2023-03-22T09:37:04.248Z,90.03
2023-03-22T09:39:38.357Z,89.17
2023-03-22T09:42:31.365Z,86.96
2023-03-22T09:45:06.721Z,87.83
2023-03-22T09:47:45.819Z,87.23
2023-03-22T09:50:31.122Z,86.12
2023-03-22T09:53:02.407Z,87.08
2023-03-22T09:55:39.651Z,86.54
2023-03-22T09:58:21.975Z,85.63
2023-03-22T10:01:21.275Z,84.20
2023-03-22T10:04:09.359Z,85.08
2023-03-22T10:06:46.537Z,85.07
2023-03-22T10:09:41.435Z,83.38
2023-03-22T10:12:24.791Z,84.37
2023-03-22T10:15:05.578Z,84.58
2023-03-22T10:17:39.681Z,84.47
2023-03-22T10:20:27.583Z,82.91
2023-03-22T10:23:02.789Z,83.88
2023-03-22T10:25:38.347Z,83.84
2023-03-22T10:28:24.836Z,83.12
2023-03-22T10:30:57.105Z,84.35
2023-03-22T10:33:39.196Z,85.53
2023-03-22T10:36:14.741Z,84.13
2023-03-22T10:38:50.375Z,83.04
2023-03-22T10:41:24.597Z,83.03
2023-03-22T10:44:00.430Z,82.90
2023-03-22T10:46:39.151Z,82.44
2023-03-22T10:49:23.009Z,81.51
2023-03-22T10:51:57.964Z,82.28
2023-03-22T10:54:30.257Z,82.09
2023-03-22T10:57:01.619Z,81.65
2023-03-22T10:59:47.234Z,80.37
2023-03-22T11:02:24.843Z,80.94
2023-03-22T11:05:03.541Z,81.27
2023-03-22T11:07:42.740Z,80.66
2023-03-22T11:10:23.316Z,80.35
2023-03-22T11:13:06.704Z,79.65
2023-03-22T11:15:51.450Z,79.67
2023-03-22T11:18:24.811Z,80.81
2023-03-22T11:21:04.591Z,80.27
2023-03-22T11:23:38.610Z,80.44
2023-03-22T11:26:12.986Z,80.00
2023-03-22T11:28:50.710Z,79.72
2023-03-22T11:31:22.129Z,79.47
2023-03-22T11:33:59.564Z,79.34
2023-03-22T11:36:31.000Z,79.73
2023-03-22T11:39:08.027Z,79.39
2023-03-22T11:41:40.616Z,78.64
2023-03-22T11:44:15.799Z,78.97
2023-03-22T11:47:00.799Z,78.73
2023-03-22T11:49:48.708Z,78.02
2023-03-22T11:52:27.415Z,78.84
2023-03-22T11:55:00.875Z,78.50
2023-03-22T11:57:34.409Z,78.10
2023-03-22T12:00:21.377Z,78.15
2023-03-22T12:03:01.355Z,77.03
2023-03-22T12:05:37.108Z,77.85
2023-03-22T12:08:18.837Z,76.98
2023-03-22T12:10:55.733Z,77.63
2023-03-22T12:13:37.486Z,77.38
2023-03-22T12:16:12.683Z,77.99
2023-03-22T12:19:13.084Z,76.40
2023-03-22T12:21:46.831Z,77.90
2023-03-22T12:24:32.047Z,76.28
2023-03-22T12:27:20.710Z,76.73
2023-03-22T12:29:58.952Z,77.33
2023-03-22T12:32:45.140Z,76.76
2023-03-22T12:35:27.953Z,76.63
2023-03-22T12:38:07.770Z,77.62
2023-03-22T12:40:41.379Z,77.43
2023-03-22T12:43:38.002Z,77.39
2023-03-22T12:46:18.238Z,77.35
2023-03-22T12:48:55.850Z,77.86
2023-03-22T12:51:27.306Z,77.53
2023-03-22T12:54:00.304Z,77.78
2023-03-22T12:56:40.273Z,77.06
2023-03-22T12:59:22.573Z,77.00
2023-03-22T13:02:17.531Z,77.58
2023-03-22T13:04:57.617Z,78.31
2023-03-22T13:07:35.530Z,78.40
2023-03-22T13:10:29.586Z,77.57
2023-03-22T13:13:23.446Z,78.17
2023-03-22T13:16:10.912Z,79.04
2023-03-22T13:18:42.584Z,79.51
2023-03-22T13:21:26.799Z,79.58
2023-03-22T13:24:04.533Z,79.84
2023-03-22T13:26:51.587Z,79.99
2023-03-22T13:29:25.949Z,80.43
2023-03-22T13:32:00.333Z,80.87
2023-03-22T13:34:48.257Z,81.34
2023-03-22T13:37:36.998Z,81.43
2023-03-22T13:40:36.317Z,81.63
2023-03-22T13:43:19.658Z,82.41
2023-03-22T13:46:17.421Z,82.15
2023-03-22T13:48:49.740Z,83.04
2023-03-22T13:51:27.946Z,82.78
2023-03-22T13:54:16.281Z,83.03
2023-03-22T13:56:56.840Z,83.38
2023-03-22T13:59:29.631Z,83.09
2023-03-22T14:02:16.285Z,83.70
2023-03-22T14:04:55.921Z,84.09
2023-03-22T14:07:33.525Z,83.89
2023-03-22T14:10:12.770Z,84.19
2023-03-22T14:12:46.902Z,84.22
2023-03-22T14:15:41.147Z,83.58
2023-03-22T14:18:17.867Z,84.39
2023-03-22T14:20:54.947Z,84.17
